KMWM/MWM METAR and TAF weather

Enter ICAO airport designator
Station Type Date Time Source
KMWM METAR 2020/05/29 18:36 UTC NOAA

KMWM 291836Z AUTO 30015G23KT 10SM CLR 18/06 A3015 RMK AO2


Station Type Date Time Source
KMWM Decoded METAR 2020/05/29 18:36 UTC NOAA

Windom, Windom Municipal Airport, MN, United States (KMWM) 43-54-48N 095-06-34W
May 29, 2020 - 02:36 PM EDT / 2020.05.29 1836 UTC
Wind: from the WNW (300 degrees) at 17 MPH (15 KT) gusting to 26 MPH (23 KT):0
Visibility: 10 mile(s):0
Sky conditions: clear
Temperature: 64 F (18 C)
Dew Point: 42 F (6 C)
Relative Humidity: 45%
Pressure (altimeter): 30.15 in. Hg (1020 hPa)
ob: KMWM 291836Z AUTO 30015G23KT 10SM CLR 18/06 A3015 RMK AO2
cycle: 18

Station Type Date Time Source
KMWM TAF UTC NOAA

Error!

Example: see airport list